Startpagina
METAR-TAF:

METAR-TAF

Vliegvelden :

Harbin, China

breedte: 45-45N, lengte: 126-46E, hoogte: 143 m

Actueel weer

Dit bericht is 16 minuten geleden gemaakt, om 23:00 UTC
Wind 6 kt uit het noordwesten
Temperatuur 12°C
Vochtigheid 82%
Druk 1006 hPa
Zicht 10 km of meer
lichte regen

METAR: ZYHB 262300Z 32003MPS 9999 -RA NSC 12/09 Q1006 NOSIG

Tijdstip: 07:16 (23:16 UTC)

Verwachting

Dit bericht is 8 uur en het 3 minuten geleden gemaakt, om 15:13 UTC
Verwachting geldig van 26 om 18 UTC tot 27 om 18 UTC
Wind 8 kt uit het noordoosten
Zicht: 6000 m
Gebroken wolken op 3300 ft
Tijdelijke
van 27 om 00 UTC tot 27 om 06 UTC
Weinig wolken op 2000 ft, Cumulonimbus.
Gebroken wolken op 2300 ft
onweer, lichte regen
Wijzigt naar
van 27 om 06 UTC tot 27 om 07 UTC
Wind 10 kt uit het noordnoordwesten

TAF: ZYHB 261513Z 2618/2718 05004MPS 6000 BKN033 TX16/2706Z TN09/2621Z TEMPO 2700/2706 -TSRA FEW020CB BKN023 BECMG 2706/2707 33005MPS

Waarnemingen en weersverwachtingen van meer dan 4000 vliegvelden (METAR en TAF).

De beschikbare stations zijn de gele en rode punten op de kaart.

Ga met uw muis naar het station om de naam te zien.

Klik dan om waarnemingen en weersverwachtingen te zien.

kaart wijzigen: klik op de groene knoppen met een zwart kruis om in te zoomen, op de groene knop met een streepje om uit te zoomen of op de groene pijlen voor aangrenzende kaarten.


METAR-TAF: